createdAt,value
2018-08-16T00:01:01.809Z,4.10
2018-08-16T00:03:33.840Z,6.50
2018-08-16T00:06:06.117Z,4.97
2018-08-16T00:08:38.257Z,4.40
2018-08-16T00:11:10.307Z,5.40
2018-08-16T00:13:42.333Z,4.23
2018-08-16T00:16:14.517Z,4.70
2018-08-16T00:18:46.586Z,4.53
2018-08-16T00:21:19.870Z,5.35
2018-08-16T00:23:52.142Z,5.67
2018-08-16T00:26:24.413Z,4.67
2018-08-16T00:28:56.629Z,6.90
2018-08-16T00:31:28.559Z,4.70
2018-08-16T00:34:00.917Z,4.80
2018-08-16T00:36:33.756Z,5.23
2018-08-16T00:39:06.695Z,4.90
2018-08-16T00:41:39.086Z,4.63
2018-08-16T00:44:11.208Z,5.17
2018-08-16T00:46:44.076Z,4.93
2018-08-16T00:49:16.343Z,5.20
2018-08-16T00:51:48.538Z,5.33
2018-08-16T00:54:20.628Z,5.70
2018-08-16T00:56:52.917Z,5.30
2018-08-16T00:59:25.019Z,5.10
2018-08-16T01:01:57.377Z,5.10
2018-08-16T01:04:29.475Z,4.43
2018-08-16T01:07:01.791Z,5.27
2018-08-16T01:09:34.368Z,4.43
2018-08-16T01:12:06.410Z,5.73
2018-08-16T01:14:38.380Z,4.57
2018-08-16T01:17:10.982Z,4.87
2018-08-16T01:19:43.114Z,5.13
2018-08-16T01:22:15.773Z,6.17
2018-08-16T01:24:48.004Z,4.83
2018-08-16T01:27:20.554Z,5.37
2018-08-16T01:29:52.660Z,4.90
2018-08-16T01:32:24.603Z,4.60
2018-08-16T01:34:56.729Z,6.07
2018-08-16T01:37:29.192Z,7.37
2018-08-16T01:40:01.720Z,4.97
2018-08-16T01:42:33.607Z,5.13
2018-08-16T01:45:06.065Z,5.13
2018-08-16T01:47:38.079Z,5.30
2018-08-16T01:50:10.956Z,6.17
2018-08-16T01:52:43.240Z,6.17
2018-08-16T01:55:16.524Z,6.60
2018-08-16T01:57:48.963Z,5.70
2018-08-16T02:00:21.346Z,5.87
2018-08-16T02:02:53.303Z,5.63
2018-08-16T02:05:25.290Z,5.43
2018-08-16T02:07:57.388Z,3.97
2018-08-16T02:10:29.990Z,5.03
2018-08-16T02:13:02.022Z,5.33
2018-08-16T02:15:34.214Z,4.60
2018-08-16T02:18:07.536Z,4.80
2018-08-16T02:20:39.869Z,5.43
2018-08-16T02:23:11.886Z,3.93
2018-08-16T02:25:44.421Z,4.83
2018-08-16T02:28:16.540Z,5.43
2018-08-16T02:30:48.838Z,4.50
2018-08-16T02:33:20.892Z,4.53
2018-08-16T02:35:53.184Z,5.03
2018-08-16T02:38:25.255Z,4.80
2018-08-16T02:40:57.429Z,5.17
2018-08-16T02:43:29.960Z,4.97
2018-08-16T02:46:02.292Z,4.47
2018-08-16T02:48:34.470Z,3.30
2018-08-16T02:51:06.713Z,3.83
2018-08-16T02:53:39.034Z,4.50
2018-08-16T02:56:11.433Z,5.90
2018-08-16T02:58:44.689Z,4.83
2018-08-16T03:01:16.813Z,3.90
2018-08-16T03:03:48.932Z,4.17
2018-08-16T03:06:21.167Z,4.67
2018-08-16T03:08:53.142Z,4.20
2018-08-16T03:11:25.564Z,3.80
2018-08-16T03:13:58.005Z,3.10
2018-08-16T03:16:30.282Z,3.87
2018-08-16T03:19:03.919Z,3.37
2018-08-16T03:21:35.944Z,3.57
2018-08-16T03:24:08.245Z,4.00
2018-08-16T03:26:40.696Z,4.60
2018-08-16T03:29:12.768Z,3.80
2018-08-16T03:31:45.041Z,4.23
2018-08-16T03:34:17.329Z,3.77
2018-08-16T03:36:49.380Z,3.90
2018-08-16T03:39:21.564Z,4.20
2018-08-16T03:41:53.962Z,3.43
2018-08-16T03:44:26.062Z,3.60
2018-08-16T03:46:58.411Z,3.47
2018-08-16T03:49:30.534Z,4.73
2018-08-16T03:52:02.749Z,3.17
2018-08-16T03:54:34.745Z,2.70
2018-08-16T03:57:07.177Z,3.23
2018-08-16T03:59:39.424Z,3.50
2018-08-16T04:02:11.576Z,3.40
2018-08-16T04:04:43.798Z,3.87
2018-08-16T04:07:15.989Z,3.20
2018-08-16T04:09:48.174Z,2.93
2018-08-16T04:12:20.450Z,3.10
2018-08-16T04:14:53.217Z,4.37
2018-08-16T04:17:29.130Z,4.73
2018-08-16T04:20:02.492Z,5.20
2018-08-16T04:22:34.734Z,5.53
2018-08-16T04:25:07.300Z,5.30
2018-08-16T04:27:39.310Z,4.77
2018-08-16T04:30:11.640Z,4.47
2018-08-16T04:42:46.181Z,4.70
2018-08-16T04:45:18.290Z,4.20
2018-08-16T04:47:50.381Z,4.80
2018-08-16T05:05:25.763Z,5.95
2018-08-16T05:07:57.887Z,4.80
2018-08-16T05:20:32.820Z,5.00
2018-08-16T05:23:04.996Z,5.30
2018-08-16T05:25:37.033Z,5.10
2018-08-16T05:28:09.223Z,5.10
2018-08-16T05:30:41.326Z,4.90
2018-08-16T05:33:13.527Z,5.60
2018-08-16T05:38:16.576Z,4.80
2018-08-16T05:40:49.163Z,4.80
2018-08-16T05:43:22.041Z,8.10
2018-08-16T05:45:54.416Z,9.40
2018-08-16T05:58:29.023Z,7.67
2018-08-16T06:01:01.269Z,7.70
2018-08-16T06:08:33.988Z,6.70
2018-08-16T06:33:42.115Z,4.77
2018-08-16T06:36:14.902Z,4.30
2018-08-16T06:38:47.081Z,4.97
2018-08-16T06:41:19.237Z,6.30
2018-08-16T06:43:53.470Z,6.07
2018-08-16T06:46:25.581Z,5.73
2018-08-16T06:48:58.654Z,5.10
2018-08-16T06:51:30.940Z,5.23
2018-08-16T06:54:03.233Z,4.77
2018-08-16T06:56:35.355Z,5.27
2018-08-16T06:59:07.622Z,5.60
2018-08-16T07:46:53.686Z,7.00
2018-08-16T07:54:26.834Z,6.20
2018-08-16T08:02:02.656Z,7.20
2018-08-16T08:09:36.171Z,7.30
2018-08-16T08:34:44.032Z,6.40
2018-08-16T08:39:52.082Z,7.40
2018-08-16T08:42:24.493Z,6.90
2018-08-16T09:00:12.656Z,7.40
2018-08-16T09:52:13.924Z,7.40
2018-08-16T09:54:45.974Z,7.10
2018-08-16T09:57:18.601Z,5.83
2018-08-16T09:59:50.749Z,7.47
2018-08-16T10:02:23.507Z,7.50
2018-08-16T10:04:55.697Z,8.57
2018-08-16T10:07:27.804Z,7.93
2018-08-16T10:09:59.933Z,7.50
2018-08-16T10:17:33.300Z,9.40
2018-08-16T10:25:07.132Z,8.00
2018-08-16T10:37:41.724Z,6.80
2018-08-16T10:40:14.334Z,7.10
2018-08-16T10:42:46.500Z,8.30
2018-08-16T10:47:49.572Z,9.10
2018-08-16T10:50:21.481Z,8.90
2018-08-16T10:52:53.486Z,9.75
2018-08-16T10:55:25.639Z,11.25
2018-08-16T11:00:28.487Z,9.30
2018-08-16T11:03:01.057Z,8.23
2018-08-16T11:23:09.274Z,9.70
2018-08-16T11:25:41.742Z,9.10
2018-08-16T11:28:13.860Z,8.63
2018-08-16T11:30:46.155Z,7.93
2018-08-16T11:33:19.379Z,10.90
2018-08-16T11:35:51.397Z,9.10
2018-08-16T11:38:23.453Z,8.23
2018-08-16T11:40:55.571Z,8.03
2018-08-16T11:43:27.641Z,8.47
2018-08-16T11:45:59.875Z,8.45
2018-08-16T11:48:32.771Z,14.60
2018-08-16T11:51:04.639Z,10.70
2018-08-16T11:53:36.793Z,10.77
2018-08-16T11:56:09.042Z,10.27
2018-08-16T11:58:41.353Z,12.43
2018-08-16T12:01:13.600Z,15.00
2018-08-16T12:03:46.504Z,12.57
2018-08-16T12:06:18.869Z,10.60
2018-08-16T12:08:51.275Z,11.67
2018-08-16T12:11:23.436Z,10.57
2018-08-16T12:13:55.793Z,9.33
2018-08-16T12:16:27.785Z,10.90
2018-08-16T12:18:59.894Z,10.70
2018-08-16T12:21:32.127Z,8.83
2018-08-16T12:24:04.603Z,11.60
2018-08-16T12:26:37.101Z,9.17
2018-08-16T12:29:09.653Z,10.03
2018-08-16T12:31:41.878Z,9.80
2018-08-16T12:34:14.086Z,9.30
2018-08-16T12:36:46.025Z,9.67
2018-08-16T12:39:18.266Z,8.17
2018-08-16T12:41:52.362Z,10.13
2018-08-16T12:44:22.612Z,9.77
2018-08-16T12:46:55.127Z,8.80
2018-08-16T12:49:27.456Z,9.90
2018-08-16T12:51:59.797Z,10.93
2018-08-16T12:54:32.192Z,9.37
2018-08-16T12:57:04.455Z,9.23
2018-08-16T12:59:36.651Z,10.90
2018-08-16T13:02:08.978Z,9.63
2018-08-16T13:04:41.385Z,7.20
2018-08-16T13:07:14.793Z,15.27
2018-08-16T13:09:47.035Z,9.77
2018-08-16T13:12:19.408Z,9.40
2018-08-16T13:14:51.630Z,10.57
2018-08-16T13:17:23.843Z,15.80
2018-08-16T13:19:57.487Z,9.20
2018-08-16T13:22:29.701Z,8.47
2018-08-16T13:25:02.097Z,9.13
2018-08-16T13:27:34.387Z,8.27
2018-08-16T13:30:08.673Z,7.00
2018-08-16T13:32:40.794Z,7.90
2018-08-16T13:35:12.989Z,6.90
2018-08-16T13:37:46.526Z,6.93
2018-08-16T13:40:18.796Z,5.33
2018-08-16T13:42:52.058Z,5.50
2018-08-16T13:45:24.188Z,6.50
2018-08-16T13:47:56.652Z,7.67
2018-08-16T13:50:28.807Z,5.10
2018-08-16T13:53:01.328Z,8.33
2018-08-16T13:55:34.120Z,6.50
2018-08-16T13:58:07.009Z,5.37
2018-08-16T14:00:39.155Z,5.60
2018-08-16T14:03:11.174Z,7.97
2018-08-16T14:05:43.918Z,6.87
2018-08-16T14:08:16.728Z,7.53
2018-08-16T14:10:53.103Z,6.57
2018-08-16T14:13:27.278Z,7.60
2018-08-16T14:16:00.584Z,7.73
2018-08-16T14:18:33.146Z,7.70
2018-08-16T14:21:05.988Z,5.90
2018-08-16T14:23:40.279Z,6.27
2018-08-16T14:26:12.628Z,7.40
2018-08-16T14:28:45.411Z,12.23
2018-08-16T14:31:19.272Z,8.47
2018-08-16T14:33:53.117Z,9.53
2018-08-16T14:36:26.329Z,9.67
2018-08-16T14:39:00.895Z,9.00
2018-08-16T14:41:35.805Z,8.43
2018-08-16T14:44:11.511Z,7.17
2018-08-16T14:46:44.660Z,6.40
2018-08-16T14:49:20.342Z,7.93
2018-08-16T14:51:54.587Z,6.47
2018-08-16T14:54:33.340Z,6.75
2018-08-16T14:57:06.922Z,5.40
2018-08-16T14:59:41.821Z,7.40
2018-08-16T15:02:15.903Z,6.60
2018-08-16T15:04:49.414Z,6.40
2018-08-16T15:07:22.989Z,4.90
2018-08-16T15:10:14.980Z,4.80
2018-08-16T15:12:49.331Z,4.60
2018-08-16T15:15:23.450Z,8.50
2018-08-16T15:17:59.968Z,6.70
2018-08-16T15:20:34.273Z,5.70
2018-08-16T15:25:39.398Z,4.30
2018-08-16T15:33:16.206Z,3.90
2018-08-16T15:40:57.376Z,5.97
2018-08-16T15:43:31.020Z,5.77
2018-08-16T16:08:57.000Z,13.60
2018-08-16T16:21:48.900Z,6.15
2018-08-16T16:26:59.180Z,4.80
2018-08-16T16:29:31.720Z,4.55
2018-08-16T16:32:07.144Z,7.80
2018-08-16T16:34:40.833Z,7.40
2018-08-16T16:37:16.264Z,6.65
2018-08-16T16:42:25.700Z,3.85
2018-08-16T16:44:59.223Z,6.10
2018-08-16T16:47:32.237Z,4.92
2018-08-16T16:50:04.454Z,7.20
2018-08-16T16:52:42.424Z,5.40
2018-08-16T16:55:19.130Z,4.50
2018-08-16T16:57:53.597Z,4.80
2018-08-16T17:03:00.954Z,4.53
2018-08-16T17:05:35.358Z,6.35
2018-08-16T17:08:10.259Z,5.62
2018-08-16T17:10:46.530Z,2.98
2018-08-16T17:13:21.660Z,3.17
2018-08-16T17:15:55.603Z,3.33
2018-08-16T17:18:29.376Z,5.58
2018-08-16T17:21:15.613Z,4.42
2018-08-16T17:23:55.644Z,3.20
2018-08-16T17:26:31.564Z,4.85
2018-08-16T17:29:05.273Z,3.22
2018-08-16T17:31:39.050Z,4.05
2018-08-16T17:34:15.614Z,4.87
2018-08-16T17:36:54.327Z,4.85
2018-08-16T17:39:28.075Z,6.60
2018-08-16T17:42:02.859Z,4.15
2018-08-16T17:44:38.021Z,4.85
2018-08-16T17:47:13.270Z,3.67
2018-08-16T17:49:49.453Z,5.28
2018-08-16T17:52:22.513Z,4.15
2018-08-16T17:54:55.536Z,5.03
2018-08-16T17:57:28.452Z,4.05
2018-08-16T18:00:01.562Z,4.17
2018-08-16T18:02:35.210Z,6.03
2018-08-16T18:05:09.930Z,5.30
2018-08-16T18:07:42.302Z,3.25
2018-08-16T18:10:16.302Z,4.45
2018-08-16T18:12:50.215Z,4.53
2018-08-16T18:15:26.985Z,4.15
2018-08-16T18:18:01.961Z,4.37
2018-08-16T18:20:36.811Z,4.62
2018-08-16T18:23:11.099Z,6.15
2018-08-16T18:25:45.190Z,2.90
2018-08-16T18:28:20.865Z,5.95
2018-08-16T18:30:58.878Z,4.33
2018-08-16T18:33:36.281Z,3.52
2018-08-16T18:36:11.146Z,3.33
2018-08-16T18:38:45.353Z,4.55
2018-08-16T18:41:19.016Z,4.30
2018-08-16T18:43:56.801Z,3.70
2018-08-16T18:46:29.328Z,3.72
2018-08-16T18:49:05.259Z,5.60
2018-08-16T18:51:42.642Z,4.17
2018-08-16T18:54:15.573Z,5.28
2018-08-16T18:56:50.931Z,3.50
2018-08-16T18:59:25.617Z,3.95
2018-08-16T19:02:00.425Z,4.78
2018-08-16T19:04:35.195Z,5.60
2018-08-16T19:07:12.115Z,3.08
2018-08-16T19:09:47.786Z,7.92
2018-08-16T19:12:24.764Z,7.75
2018-08-16T19:14:58.473Z,4.50
2018-08-16T19:17:34.767Z,4.05
2018-08-16T19:20:08.483Z,3.83
2018-08-16T19:22:40.531Z,5.72
2018-08-16T19:25:15.889Z,4.12
2018-08-16T19:27:49.129Z,3.92
2018-08-16T19:31:09.369Z,4.45
2018-08-16T19:33:42.140Z,8.35
2018-08-16T19:38:56.624Z,4.12
2018-08-16T19:41:29.080Z,5.83
2018-08-16T19:44:08.533Z,5.75
2018-08-16T19:46:43.210Z,3.83
2018-08-16T19:49:17.246Z,5.45
2018-08-16T19:51:53.499Z,3.83
2018-08-16T19:54:29.573Z,7.00
2018-08-16T19:57:02.317Z,4.25
2018-08-16T19:59:45.443Z,6.95
2018-08-16T20:02:21.486Z,4.90
2018-08-16T20:05:01.138Z,5.33
2018-08-16T20:07:37.335Z,7.03
2018-08-16T20:10:14.796Z,6.53
2018-08-16T20:12:49.897Z,5.90
2018-08-16T20:15:28.946Z,5.93
2018-08-16T20:18:11.595Z,4.33
2018-08-16T20:20:47.533Z,4.77
2018-08-16T20:23:31.049Z,7.20
2018-08-16T20:26:06.636Z,3.80
2018-08-16T20:28:41.159Z,4.37
2018-08-16T20:31:19.970Z,3.50
2018-08-16T20:33:54.809Z,5.13
2018-08-16T20:36:28.249Z,4.27
2018-08-16T20:39:01.026Z,6.30
2018-08-16T20:41:35.927Z,6.13
2018-08-16T20:44:09.273Z,4.50
2018-08-16T20:46:49.902Z,5.47
2018-08-16T20:49:25.055Z,5.13
2018-08-16T20:51:59.794Z,3.97
2018-08-16T20:54:34.304Z,3.90
2018-08-16T20:57:07.672Z,3.43
2018-08-16T20:59:46.137Z,4.27
2018-08-16T21:02:18.577Z,5.60
2018-08-16T21:04:54.286Z,5.70
2018-08-16T21:07:28.234Z,4.50
2018-08-16T21:10:03.853Z,3.53
2018-08-16T21:12:39.029Z,5.63
2018-08-16T21:15:13.025Z,5.83
2018-08-16T21:17:50.163Z,5.50
2018-08-16T21:20:27.121Z,5.20
2018-08-16T21:23:04.837Z,5.87
2018-08-16T21:25:47.236Z,6.27
2018-08-16T21:28:24.825Z,4.40
2018-08-16T21:30:59.850Z,7.10
2018-08-16T21:33:35.777Z,5.37
2018-08-16T21:36:14.483Z,8.20
2018-08-16T21:38:47.436Z,4.87
2018-08-16T21:41:22.576Z,8.03
2018-08-16T21:43:59.745Z,7.60
2018-08-16T21:46:33.573Z,5.27
2018-08-16T21:49:07.867Z,6.00
2018-08-16T21:51:42.439Z,5.77
2018-08-16T21:54:22.833Z,19.07
2018-08-16T21:56:57.078Z,21.87
2018-08-16T21:59:30.577Z,6.07
2018-08-16T22:02:08.178Z,4.57
2018-08-16T22:04:54.897Z,4.50
2018-08-16T22:08:05.948Z,4.57
2018-08-16T22:10:38.193Z,3.83
2018-08-16T22:13:13.103Z,9.67
2018-08-16T22:15:48.459Z,4.60
2018-08-16T22:18:21.536Z,5.93
2018-08-16T22:20:56.306Z,4.43
2018-08-16T22:23:31.741Z,3.63
2018-08-16T22:26:08.786Z,4.80
2018-08-16T22:28:42.206Z,4.47
2018-08-16T22:31:15.691Z,4.60
2018-08-16T22:33:48.530Z,4.73
2018-08-16T22:36:21.040Z,6.33
2018-08-16T22:38:54.344Z,3.83
2018-08-16T22:41:29.556Z,8.07
2018-08-16T22:44:03.452Z,6.10
2018-08-16T22:46:37.741Z,4.60
2018-08-16T22:49:12.206Z,4.20
2018-08-16T22:51:44.379Z,5.87
2018-08-16T22:54:23.130Z,6.93
2018-08-16T22:56:56.774Z,5.20
2018-08-16T22:59:29.910Z,5.83
2018-08-16T23:02:02.908Z,5.37
2018-08-16T23:04:36.207Z,4.80
2018-08-16T23:07:11.663Z,9.13
2018-08-16T23:09:47.727Z,8.37
2018-08-16T23:12:20.164Z,6.50
2018-08-16T23:14:52.492Z,5.03
2018-08-16T23:17:24.676Z,5.60
2018-08-16T23:19:58.524Z,6.57
2018-08-16T23:22:32.930Z,4.90
2018-08-16T23:25:06.719Z,6.57
2018-08-16T23:27:39.326Z,9.43
2018-08-16T23:30:15.599Z,5.20
2018-08-16T23:32:50.792Z,5.73
2018-08-16T23:35:23.294Z,9.80
2018-08-16T23:37:55.721Z,8.00
2018-08-16T23:40:28.244Z,5.80
2018-08-16T23:43:01.266Z,7.00
2018-08-16T23:45:33.561Z,6.37
2018-08-16T23:48:16.612Z,4.93
2018-08-16T23:50:48.883Z,5.90
2018-08-16T23:53:21.332Z,5.87
2018-08-16T23:55:54.199Z,6.50
2018-08-16T23:58:29.385Z,6.60
